CPX435 Details

Departure: Sacramento International Airport (KSMF)
Arrival: Salt Lake City International Airport (KSLC)
Route: SCTWN2 MACUS Q124 BVL WAATS5


Current Weather Information
KSMF 251153Z 17015KT 10SM BKN009 12/11 A2977 RMK AO2 SLP079 T01220106 10144 20122 56017
KSLC 251154Z 15011KT 10SM SCT080 BKN095 12/06 A2990 RMK AO2 SLP094 VIRGA VC NE AND SW AND W P0000 60000 70004 T01170056 10117 20106 56005 VISNO NW RNWY